Airport ICAO


09:06 UTC

-1°C


An affordable passengers' Moving Map for your aircraft. Made for the iPad and the iPhone
More information here

EGSS Stansted


London UNITED KINGDOM   VFR


METAR EGSS 180850Z AUTO 15006KT 130V200 9999 NCD M01/M03 Q1018 0h16min

TAF EGSS 180456Z 1806/1912 22005KT 9999 FEW035 PROB30 1806/1810 6000 BECMG 1810/1813 15010KT BECMG 1822/1901 OVC010 TEMPO 1822/1907 7000 -RA OVC006 PROB30 TEMPO 1822/1907 3000 RASN -SN OVC004 BECMG 1907/1910 7000 OVC004 PROB40 TEMPO 1907/1912 0300 FG VV/// PROB30 TEMPO 1907/1912 RADZ 4h10min





NOTAMS

OPEN